Bremen Bridge — H9NC — position and weather

sailwx.info

Track history (hours):
 
Tides and Currents Weather Stations Pressure Air Temp Water Temp Dewpoint Dewpoint Depression Visibility Wind Speed Wind Dir Waves Ship Positions

Bremen Bridge

Last reported at 2016-May-09 20:16 UTC. Time now 2016-Sep-25 05:29 UTC.
Position N 01°59' E 102°13'.
Warning: this ship's position is months out of date.

Length 249 m; draft 11.7 m.

Type: Cargo ship. MMSI: 374891000.

Date/timePositionNaut miles runAvg speedWind from/ knotsBaromVisibWave heightAir tempDewpointWater temp
2016-May-09 20:16N 01°59' E 102°13'1013.3
2016-May-09 19:33N 01°54' E 102°21'1313.0
2016-May-09 18:33N 01°49' E 102°33'1212.2
2016-May-09 17:33N 01°44' E 102°45'5911.3
2016-May-09 12:21N 01°12' E 103°34'1012.4
2016-May-09 11:33N 01°08' E 103°43'1212.3
2016-May-09 10:33N 01°13' E 103°54'3 2.4
2016-May-09 09:09N 01°16' E 103°56'0 0.0
2016-May-09 07:33N 01°16' E 103°56'0 0.0
2016-May-09 05:30N 01°16' E 103°56'0 0.0
2016-May-09 04:33N 01°16' E 103°56'0 0.2
2016-May-09 03:34N 01°16' E 103°56'2 2.2
2016-May-09 02:33N 01°16' E 103°58'  
2016-May-05 23:24S 03°47' E 114°28'4 4.1
2016-May-05 22:30S 03°43' E 114°29'0 0.3
2016-May-05 21:34S 03°43' E 114°29'0 0.2
2016-May-05 20:33S 03°43' E 114°29'0 0.0
2016-May-05 19:32S 03°43' E 114°29'0 0.1
2016-May-05 18:33S 03°43' E 114°29'0 0.0
2016-May-05 16:32S 03°43' E 114°29'0 0.0
2016-May-05 15:33S 03°43' E 114°29'0 0.0
2016-May-05 14:34S 03°43' E 114°29'0 0.1
2016-May-05 13:34S 03°43' E 114°29'0 0.1
2016-May-05 12:33S 03°43' E 114°29'0 0.0
2016-May-05 11:33S 03°43' E 114°29'0 0.2
2016-May-05 10:33S 03°43' E 114°29'0 0.0
2016-May-05 09:15S 03°43' E 114°29'0 0.0
2016-May-05 04:33S 03°43' E 114°29'0 0.1
2016-May-05 03:33S 03°43' E 114°29'0 0.0
2016-May-05 02:34S 03°43' E 114°29'0 0.0
2016-May-05 01:04S 03°44' E 114°29'0 0.1
2016-May-05 00:33S 03°43' E 114°29'0 0.0
2016-May-04 23:34S 03°44' E 114°29'0 0.0
2016-May-04 22:34S 03°44' E 114°29'0 0.0
2016-May-04 21:32S 03°43' E 114°29'0 0.0
2016-May-04 20:34S 03°43' E 114°29'0 0.1
2016-May-04 19:33S 03°43' E 114°29'0 0.0
2016-May-04 18:33S 03°43' E 114°29'0 0.0
2016-May-04 17:34S 03°43' E 114°29'0 0.1
2016-May-04 16:33S 03°43' E 114°29'0 0.1
2016-May-04 15:33S 03°43' E 114°29'0 0.1
2016-May-04 14:34S 03°43' E 114°29'0 0.0
2016-May-04 13:33S 03°43' E 114°29'0 0.0
2016-May-04 12:33S 03°43' E 114°29'0 0.0
2016-May-04 11:34S 03°43' E 114°29'0 0.0
2016-May-04 10:33S 03°43' E 114°29'0 0.0
2016-May-04 09:33S 03°43' E 114°29'0 0.2
2016-May-04 08:34S 03°43' E 114°29'0 0.1
2016-May-04 07:18S 03°43' E 114°29'0 0.0
2016-May-04 04:07S 03°43' E 114°29'0 0.1
2016-May-04 03:30S 03°43' E 114°29'0 0.2
2016-May-04 02:34S 03°43' E 114°29'0 0.1
2016-May-04 01:33S 03°44' E 114°29'0 0.0
2016-May-04 00:33S 03°44' E 114°29'0 0.0
2016-May-03 23:33S 03°44' E 114°29'0 0.0
2016-May-03 22:34S 03°44' E 114°29'0 0.0
2016-May-03 21:33S 03°44' E 114°29'0 0.1
2016-May-03 20:33S 03°43' E 114°29'0 0.0
2016-May-03 19:34S 03°43' E 114°29'0 0.1
2016-May-03 18:34S 03°43' E 114°29'0 0.0
2016-May-03 17:33S 03°43' E 114°29'0 0.1
2016-May-03 16:33S 03°43' E 114°29'0 0.0
2016-May-03 15:33S 03°43' E 114°29'0 0.0
2016-May-03 14:34S 03°43' E 114°29'0 0.0
2016-May-03 13:33S 03°43' E 114°29'0 0.0
2016-May-03 12:34S 03°43' E 114°29'0 0.0
2016-May-03 11:33S 03°43' E 114°29'0 0.0
2016-May-03 10:33S 03°43' E 114°29'0 0.1
2016-May-03 09:33S 03°43' E 114°29'0 0.0
2016-May-03 08:32S 03°43' E 114°29'0 0.1
2016-May-03 07:23S 03°43' E 114°29'0 0.1
2016-May-03 06:33S 03°43' E 114°29'0 0.1
2016-May-03 04:14S 03°43' E 114°29'0 0.1
2016-May-03 03:32S 03°43' E 114°29'0 0.1
2016-May-03 02:33S 03°43' E 114°29'0 0.1
2016-May-03 01:34S 03°43' E 114°29'0 0.1
2016-May-03 00:33S 03°44' E 114°29'0 0.0
2016-May-02 23:33S 03°44' E 114°29'0 0.1
2016-May-02 22:34S 03°44' E 114°29'0 0.1
2016-May-02 21:34S 03°44' E 114°29'0 0.0
2016-May-02 20:34S 03°44' E 114°29'0 0.0
2016-May-02 19:34S 03°44' E 114°29'0 0.0
2016-May-02 18:34S 03°44' E 114°29'0 0.1
2016-May-02 17:31S 03°44' E 114°29'0 0.0
2016-May-02 16:33S 03°43' E 114°29'0 0.1
2016-May-02 15:33S 03°44' E 114°29'0 0.0
2016-May-02 14:33S 03°44' E 114°29'0 0.0
2016-May-02 13:33S 03°44' E 114°29'0 0.0
2016-May-02 12:26S 03°44' E 114°29'0 0.1
2016-May-02 11:34S 03°44' E 114°29'0 0.2
2016-May-02 10:34S 03°43' E 114°29'0 0.0
2016-May-02 09:34S 03°43' E 114°29'0 0.1
2016-May-02 08:34S 03°43' E 114°29'0 0.0
2016-May-02 07:24S 03°43' E 114°29'0 0.0
2016-May-02 06:31S 03°43' E 114°29'0 0.1
2016-May-02 05:34S 03°43' E 114°29'0 0.0
2016-May-02 04:34S 03°43' E 114°29'0 0.1
2016-May-02 03:32S 03°43' E 114°29'0 0.1
2016-May-02 02:33S 03°44' E 114°29'0 0.0
2016-May-02 01:33S 03°44' E 114°29'0 0.0
2016-May-02 00:33S 03°43' E 114°29'0 0.0
2016-May-01 23:34S 03°44' E 114°29'0 0.0
2016-May-01 22:33S 03°44' E 114°29'0 0.0
2016-May-01 21:33S 03°44' E 114°29'0 0.0
2016-May-01 20:33S 03°44' E 114°29'0 0.0
2016-May-01 19:33S 03°44' E 114°29'0 0.0
2016-May-01 18:33S 03°44' E 114°29'0 0.1
2016-May-01 17:34S 03°44' E 114°29'0 0.1
2016-May-01 16:33S 03°43' E 114°29'0 0.1
2016-May-01 15:34S 03°43' E 114°29'0 0.0
2016-May-01 14:33S 03°43' E 114°29'0 0.0
2016-May-01 13:33S 03°43' E 114°29'0 0.0
2016-May-01 12:33S 03°43' E 114°29'0 0.1
2016-May-01 11:33S 03°43' E 114°29'0 0.1
2016-May-01 10:27S 03°43' E 114°29'0 0.0
2016-May-01 09:34S 03°43' E 114°29'0 0.0
2016-May-01 08:34S 03°43' E 114°29'0 0.1
2016-May-01 07:33S 03°43' E 114°29'0 0.0
2016-May-01 06:32S 03°43' E 114°29'0 0.1
2016-May-01 05:33S 03°43' E 114°29'0 0.1
2016-May-01 04:33S 03°43' E 114°29'0 0.1
2016-May-01 03:25S 03°43' E 114°29'  
Track history (hours):
 
Tides and Currents Weather Stations Pressure Air Temp Water Temp Dewpoint Dewpoint Depression Visibility Wind Speed Wind Dir Waves Ship Positions

Bremen Bridge

Last reported at 2016-May-09 20:16 UTC. Time now 2016-Sep-25 05:29 UTC.
Position N 01°59' E 102°13'.
Warning: this ship's position is months out of date.

Length 249 m; draft 11.7 m.

Type: Cargo ship. MMSI: 374891000.

Date/timePositionNaut miles runAvg speedWind from/ knotsBaromVisibWave heightAir tempDewpointWater temp
2016-May-09 20:16N 01°59' E 102°13'1013.3
2016-May-09 19:33N 01°54' E 102°21'1313.0
2016-May-09 18:33N 01°49' E 102°33'1212.2
2016-May-09 17:33N 01°44' E 102°45'5911.3
2016-May-09 12:21N 01°12' E 103°34'1012.4
2016-May-09 11:33N 01°08' E 103°43'1212.3
2016-May-09 10:33N 01°13' E 103°54'3 2.4
2016-May-09 09:09N 01°16' E 103°56'0 0.0
2016-May-09 07:33N 01°16' E 103°56'0 0.0
2016-May-09 05:30N 01°16' E 103°56'0 0.0
2016-May-09 04:33N 01°16' E 103°56'0 0.2
2016-May-09 03:34N 01°16' E 103°56'2 2.2
2016-May-09 02:33N 01°16' E 103°58'  
2016-May-05 23:24S 03°47' E 114°28'4 4.1
2016-May-05 22:30S 03°43' E 114°29'0 0.3
2016-May-05 21:34S 03°43' E 114°29'0 0.2
2016-May-05 20:33S 03°43' E 114°29'0 0.0
2016-May-05 19:32S 03°43' E 114°29'0 0.1
2016-May-05 18:33S 03°43' E 114°29'0 0.0
2016-May-05 16:32S 03°43' E 114°29'0 0.0
2016-May-05 15:33S 03°43' E 114°29'0 0.0
2016-May-05 14:34S 03°43' E 114°29'0 0.1
2016-May-05 13:34S 03°43' E 114°29'0 0.1
2016-May-05 12:33S 03°43' E 114°29'0 0.0
2016-May-05 11:33S 03°43' E 114°29'0 0.2
2016-May-05 10:33S 03°43' E 114°29'0 0.0
2016-May-05 09:15S 03°43' E 114°29'0 0.0
2016-May-05 04:33S 03°43' E 114°29'0 0.1
2016-May-05 03:33S 03°43' E 114°29'0 0.0
2016-May-05 02:34S 03°43' E 114°29'0 0.0
2016-May-05 01:04S 03°44' E 114°29'0 0.1
2016-May-05 00:33S 03°43' E 114°29'0 0.0
2016-May-04 23:34S 03°44' E 114°29'0 0.0
2016-May-04 22:34S 03°44' E 114°29'0 0.0
2016-May-04 21:32S 03°43' E 114°29'0 0.0
2016-May-04 20:34S 03°43' E 114°29'0 0.1
2016-May-04 19:33S 03°43' E 114°29'0 0.0
2016-May-04 18:33S 03°43' E 114°29'0 0.0
2016-May-04 17:34S 03°43' E 114°29'0 0.1
2016-May-04 16:33S 03°43' E 114°29'0 0.1
2016-May-04 15:33S 03°43' E 114°29'0 0.1
2016-May-04 14:34S 03°43' E 114°29'0 0.0
2016-May-04 13:33S 03°43' E 114°29'0 0.0
2016-May-04 12:33S 03°43' E 114°29'0 0.0
2016-May-04 11:34S 03°43' E 114°29'0 0.0
2016-May-04 10:33S 03°43' E 114°29'0 0.0
2016-May-04 09:33S 03°43' E 114°29'0 0.2
2016-May-04 08:34S 03°43' E 114°29'0 0.1
2016-May-04 07:18S 03°43' E 114°29'0 0.0
2016-May-04 04:07S 03°43' E 114°29'0 0.1
2016-May-04 03:30S 03°43' E 114°29'0 0.2
2016-May-04 02:34S 03°43' E 114°29'0 0.1
2016-May-04 01:33S 03°44' E 114°29'0 0.0
2016-May-04 00:33S 03°44' E 114°29'0 0.0
2016-May-03 23:33S 03°44' E 114°29'0 0.0
2016-May-03 22:34S 03°44' E 114°29'0 0.0
2016-May-03 21:33S 03°44' E 114°29'0 0.1
2016-May-03 20:33S 03°43' E 114°29'0 0.0
2016-May-03 19:34S 03°43' E 114°29'0 0.1
2016-May-03 18:34S 03°43' E 114°29'0 0.0
2016-May-03 17:33S 03°43' E 114°29'0 0.1
2016-May-03 16:33S 03°43' E 114°29'0 0.0
2016-May-03 15:33S 03°43' E 114°29'0 0.0
2016-May-03 14:34S 03°43' E 114°29'0 0.0
2016-May-03 13:33S 03°43' E 114°29'0 0.0
2016-May-03 12:34S 03°43' E 114°29'0 0.0
2016-May-03 11:33S 03°43' E 114°29'0 0.0
2016-May-03 10:33S 03°43' E 114°29'0 0.1
2016-May-03 09:33S 03°43' E 114°29'0 0.0
2016-May-03 08:32S 03°43' E 114°29'0 0.1
2016-May-03 07:23S 03°43' E 114°29'0 0.1
2016-May-03 06:33S 03°43' E 114°29'0 0.1
2016-May-03 04:14S 03°43' E 114°29'0 0.1
2016-May-03 03:32S 03°43' E 114°29'0 0.1
2016-May-03 02:33S 03°43' E 114°29'0 0.1
2016-May-03 01:34S 03°43' E 114°29'0 0.1
2016-May-03 00:33S 03°44' E 114°29'0 0.0
2016-May-02 23:33S 03°44' E 114°29'0 0.1
2016-May-02 22:34S 03°44' E 114°29'0 0.1
2016-May-02 21:34S 03°44' E 114°29'0 0.0
2016-May-02 20:34S 03°44' E 114°29'0 0.0
2016-May-02 19:34S 03°44' E 114°29'0 0.0
2016-May-02 18:34S 03°44' E 114°29'0 0.1
2016-May-02 17:31S 03°44' E 114°29'0 0.0
2016-May-02 16:33S 03°43' E 114°29'0 0.1
2016-May-02 15:33S 03°44' E 114°29'0 0.0
2016-May-02 14:33S 03°44' E 114°29'0 0.0
2016-May-02 13:33S 03°44' E 114°29'0 0.0
2016-May-02 12:26S 03°44' E 114°29'0 0.1
2016-May-02 11:34S 03°44' E 114°29'0 0.2
2016-May-02 10:34S 03°43' E 114°29'0 0.0
2016-May-02 09:34S 03°43' E 114°29'0 0.1
2016-May-02 08:34S 03°43' E 114°29'0 0.0
2016-May-02 07:24S 03°43' E 114°29'0 0.0
2016-May-02 06:31S 03°43' E 114°29'0 0.1
2016-May-02 05:34S 03°43' E 114°29'0 0.0
2016-May-02 04:34S 03°43' E 114°29'0 0.1
2016-May-02 03:32S 03°43' E 114°29'0 0.1
2016-May-02 02:33S 03°44' E 114°29'0 0.0
2016-May-02 01:33S 03°44' E 114°29'0 0.0
2016-May-02 00:33S 03°43' E 114°29'0 0.0
2016-May-01 23:34S 03°44' E 114°29'0 0.0
2016-May-01 22:33S 03°44' E 114°29'0 0.0
2016-May-01 21:33S 03°44' E 114°29'0 0.0
2016-May-01 20:33S 03°44' E 114°29'0 0.0
2016-May-01 19:33S 03°44' E 114°29'0 0.0
2016-May-01 18:33S 03°44' E 114°29'0 0.1
2016-May-01 17:34S 03°44' E 114°29'0 0.1
2016-May-01 16:33S 03°43' E 114°29'0 0.1
2016-May-01 15:34S 03°43' E 114°29'0 0.0
2016-May-01 14:33S 03°43' E 114°29'0 0.0
2016-May-01 13:33S 03°43' E 114°29'0 0.0
2016-May-01 12:33S 03°43' E 114°29'0 0.1
2016-May-01 11:33S 03°43' E 114°29'0 0.1
2016-May-01 10:27S 03°43' E 114°29'0 0.0
2016-May-01 09:34S 03°43' E 114°29'0 0.0
2016-May-01 08:34S 03°43' E 114°29'0 0.1
2016-May-01 07:33S 03°43' E 114°29'0 0.0
2016-May-01 06:32S 03°43' E 114°29'0 0.1
2016-May-01 05:33S 03°43' E 114°29'0 0.1
2016-May-01 04:33S 03°43' E 114°29'0 0.1
2016-May-01 03:25S 03°43' E 114°29'  

Dump ship's entire track history